Time;durP1;ratioP1;P1;durP2;ratioP2;P2;SDS_P1;SDS_P2;PMS_P1;PMS_P2;Temp;Humidity;BMP_temperature;BMP_pressure;BME280_temperature;BME280_humidity;BME280_pressure;Samples;Min_cycle;Max_cycle;Signal;HPM_P1;HPM_P2
2021/09/18 00:01:07;;;;;;;;;23.33;21.67;;;;;19.05;60.74;101140.44;5030866;28;55763;-75
2021/09/18 00:03:33;;;;;;;;;21.33;19.00;;;;;19.03;60.38;101134.22;5032423;28;45443;-76
2021/09/18 00:05:58;;;;;;;;;24.00;22.33;;;;;19.03;60.59;101139.59;5032942;28;45459;-76
2021/09/18 00:08:23;;;;;;;;;19.00;18.00;;;;;19.03;60.90;101142.25;5030931;28;55851;-75
2021/09/18 00:10:49;;;;;;;;;21.67;18.00;;;;;18.99;60.57;101136.06;5032685;28;58911;-75
2021/09/18 00:13:14;;;;;;;;;22.33;20.00;;;;;19.01;60.84;101141.38;5034441;28;53654;-78
2021/09/18 00:15:39;;;;;;;;;18.67;18.67;;;;;18.99;60.96;101140.53;5030949;28;50514;-75
2021/09/18 00:18:05;;;;;;;;;19.67;19.00;;;;;18.95;60.82;101136.16;5031773;28;45729;-75
2021/09/18 00:20:30;;;;;;;;;19.00;19.00;;;;;18.97;61.10;101140.59;5031017;28;49910;-75
2021/09/18 00:22:57;;;;;;;;;19.33;18.00;;;;;18.95;61.21;101141.50;5031149;28;45447;-76
2021/09/18 00:25:22;;;;;;;;;22.67;18.33;;;;;18.94;60.88;101137.06;5031473;28;45633;-75
2021/09/18 00:27:47;;;;;;;;;18.33;17.00;;;;;18.93;60.90;101136.19;5030508;28;60607;-75
2021/09/18 00:30:13;;;;;;;;;21.00;19.00;;;;;18.93;60.61;101135.31;5031319;28;60096;-76
2021/09/18 00:32:38;;;;;;;;;18.33;17.67;;;;;18.93;61.36;101138.00;5034097;28;45606;-75
2021/09/18 00:35:05;;;;;;;;;21.33;18.67;;;;;18.93;61.42;101127.28;5032153;28;45622;-75
2021/09/18 00:37:31;;;;;;;;;18.00;18.00;;;;;18.93;61.23;101132.63;5030885;28;46502;-75
2021/09/18 00:39:56;;;;;;;;;23.33;19.00;;;;;18.91;60.69;101124.66;5031358;28;60157;-75
2021/09/18 00:42:21;;;;;;;;;22.00;20.00;;;;;18.89;61.35;101120.22;5037768;28;55461;-78
2021/09/18 00:44:47;;;;;;;;;23.67;20.67;;;;;18.92;61.12;101131.75;5033475;28;51102;-75
2021/09/18 00:47:12;;;;;;;;;24.33;22.33;;;;;18.91;60.86;101130.00;5030934;28;58225;-79
2021/09/18 00:49:38;;;;;;;;;27.00;23.33;;;;;18.90;61.11;101127.31;5030285;28;58551;-76
2021/09/18 00:52:03;;;;;;;;;23.33;21.00;;;;;18.89;60.96;101128.25;5032996;28;45661;-77
2021/09/18 00:54:28;;;;;;;;;24.67;22.33;;;;;18.88;61.08;101123.81;5029538;28;52487;-76
2021/09/18 00:56:54;;;;;;;;;24.33;21.33;;;;;18.87;60.88;101125.59;5030800;28;46437;-77
2021/09/18 00:59:23;;;;;;;;;18.33;18.00;;;;;18.83;61.21;101121.22;5031847;28;45479;-74
2021/09/18 01:01:48;;;;;;;;;19.33;17.00;;;;;18.83;61.29;101118.53;5013490;28;45566;-76
2021/09/18 01:04:13;;;;;;;;;23.33;20.33;;;;;18.81;61.34;101117.69;5031592;28;45522;-76
2021/09/18 01:06:39;;;;;;;;;21.00;19.33;;;;;18.81;61.09;101117.69;5030005;28;61760;-76
2021/09/18 01:09:04;;;;;;;;;25.67;20.33;;;;;18.79;61.50;101116.81;5029896;28;57887;-75
2021/09/18 01:11:30;;;;;;;;;19.67;18.00;;;;;18.78;61.45;101118.63;5013752;28;55294;-79
2021/09/18 01:13:55;;;;;;;;;21.00;19.00;;;;;18.76;61.74;101106.19;5031216;28;45731;-77
2021/09/18 01:16:21;;;;;;;;;21.00;20.33;;;;;18.79;61.58;101114.16;5029056;28;47363;-77
2021/09/18 01:18:47;;;;;;;;;19.00;18.00;;;;;18.74;61.24;101106.19;5030379;28;45519;-76
2021/09/18 01:21:12;;;;;;;;;22.33;22.33;;;;;18.72;61.67;101105.38;5031254;28;45526;-78
2021/09/18 01:23:37;;;;;;;;;20.67;19.33;;;;;18.76;61.52;101108.88;5012070;28;49611;-78
2021/09/18 01:26:03;;;;;;;;;22.67;19.67;;;;;18.74;61.62;101105.31;5029679;28;46374;-76
2021/09/18 01:28:28;;;;;;;;;22.00;20.00;;;;;18.75;61.50;101117.78;5030644;28;53159;-76
2021/09/18 01:30:54;;;;;;;;;21.33;21.00;;;;;18.74;61.32;101114.22;5030616;28;54517;-76
2021/09/18 01:33:19;;;;;;;;;22.33;21.33;;;;;18.72;61.57;101101.81;5028302;28;51299;-76
2021/09/18 01:35:45;;;;;;;;;26.33;23.00;;;;;18.74;61.61;101116.03;5032084;28;45922;-75
2021/09/18 01:38:10;;;;;;;;;24.00;19.67;;;;;18.73;61.57;101107.13;5012666;28;54095;-77
2021/09/18 01:40:43;;;;;;;;;20.00;18.67;;;;;18.76;61.89;101109.75;5031130;28;47314;-75
2021/09/18 01:43:10;;;;;;;;;25.33;19.00;;;;;18.78;61.57;101107.03;5023665;28;45443;-76
2021/09/18 01:45:35;;;;;;;;;18.33;18.00;;;;;18.82;61.71;101109.63;5031342;28;46642;-75
2021/09/18 01:48:05;;;;;;;;;20.67;19.00;;;;;18.85;61.82;101108.69;5030158;28;45430;-76
2021/09/18 01:50:32;;;;;;;;;20.33;19.00;;;;;18.87;61.92;101106.88;5030865;28;45526;-75
2021/09/18 01:53:00;;;;;;;;;23.00;19.00;;;;;18.87;61.74;101103.31;5031250;28;45794;-75
2021/09/18 01:55:25;;;;;;;;;20.00;19.33;;;;;18.93;61.44;101111.22;5007728;28;46614;-76
2021/09/18 01:57:52;;;;;;;;;20.00;20.00;;;;;18.97;61.51;101119.19;5030621;28;53311;-75
2021/09/18 02:00:17;;;;;;;;;17.67;16.00;;;;;19.00;61.74;101118.22;5029974;28;45563;-77
2021/09/18 02:02:43;;;;;;;;;21.00;19.67;;;;;19.01;61.61;101110.16;5031321;28;45693;-75
2021/09/18 02:05:09;;;;;;;;;18.67;17.67;;;;;18.99;61.63;101098.59;5033841;28;46500;-75
2021/09/18 02:07:34;;;;;;;;;19.33;18.00;;;;;19.06;61.65;101102.03;5010302;28;45487;-75
2021/09/18 02:09:59;;;;;;;;;17.33;16.00;;;;;19.08;61.69;101097.56;5030395;28;48174;-76
2021/09/18 02:12:25;;;;;;;;;21.33;18.33;;;;;19.04;61.49;101091.38;5030236;28;45526;-75
2021/09/18 02:14:50;;;;;;;;;18.33;17.00;;;;;19.10;61.57;101107.31;5030198;28;63401;-75
2021/09/18 02:17:16;;;;;;;;;20.67;17.67;;;;;19.13;61.63;101101.03;5030210;28;46638;-75
2021/09/18 02:19:41;;;;;;;;;15.33;15.33;;;;;19.14;61.61;101107.25;5030450;28;45446;-77
2021/09/18 02:22:06;;;;;;;;;19.33;18.00;;;;;19.11;61.59;101105.50;5028226;28;55086;-77
2021/09/18 02:24:32;;;;;;;;;17.67;15.00;;;;;19.14;61.60;101105.47;5033918;28;61685;-76
2021/09/18 02:26:57;;;;;;;;;17.67;15.33;;;;;19.14;61.48;101102.78;5019309;28;57672;-77
2021/09/18 02:29:22;;;;;;;;;15.33;14.33;;;;;19.15;61.52;101101.88;4993848;28;52901;-75
2021/09/18 02:31:48;;;;;;;;;16.00;15.00;;;;;19.12;61.33;101093.88;5014997;28;52351;-74
2021/09/18 02:34:13;;;;;;;;;21.33;17.67;;;;;19.14;61.47;101089.41;5011670;28;46897;-75
2021/09/18 02:36:38;;;;;;;;;14.67;12.00;;;;;19.09;61.22;101081.44;5016541;28;58074;-77
2021/09/18 02:39:04;;;;;;;;;14.67;13.67;;;;;19.14;61.66;101093.88;5012938;28;55179;-74
2021/09/18 02:41:29;;;;;;;;;14.33;14.33;;;;;19.12;61.40;101088.53;5010854;28;45631;-77
2021/09/18 02:43:55;;;;;;;;;17.33;16.00;;;;;19.13;61.33;101086.75;5010365;28;59584;-78
2021/09/18 02:46:20;;;;;;;;;14.67;13.00;;;;;19.11;61.36;101084.97;5022454;28;56571;-75
2021/09/18 02:48:45;;;;;;;;;16.00;14.67;;;;;19.09;61.09;101085.94;5014314;28;55432;-77
2021/09/18 02:51:11;;;;;;;;;15.33;15.00;;;;;19.08;60.91;101081.50;5013096;28;54070;-77
2021/09/18 02:53:36;;;;;;;;;16.33;16.33;;;;;19.05;60.93;101073.50;5011418;28;57121;-74
2021/09/18 02:56:02;;;;;;;;;19.00;18.00;;;;;19.00;61.12;101070.94;5012540;28;59456;-75
2021/09/18 02:58:28;;;;;;;;;17.33;15.33;;;;;19.03;61.18;101075.34;5013186;28;45510;-75
2021/09/18 03:00:53;;;;;;;;;15.33;15.33;;;;;18.97;61.26;101070.13;4994663;28;45910;-75
2021/09/18 03:03:18;;;;;;;;;16.33;16.00;;;;;19.01;61.23;101074.47;5013015;28;56613;-78
2021/09/18 03:05:44;;;;;;;;;19.33;17.00;;;;;19.00;61.27;101086.97;5012913;28;54710;-74
2021/09/18 03:08:09;;;;;;;;;17.00;14.33;;;;;18.93;61.35;101074.66;5013648;28;45965;-77
2021/09/18 03:10:34;;;;;;;;;18.33;16.33;;;;;18.97;61.30;101094.22;5013564;28;52402;-76
2021/09/18 03:13:00;;;;;;;;;15.33;14.00;;;;;18.97;61.50;101099.56;5013027;28;46303;-75
2021/09/18 03:15:25;;;;;;;;;18.67;16.33;;;;;18.96;61.36;101095.09;5013646;28;45431;-76
2021/09/18 03:17:51;;;;;;;;;15.33;14.33;;;;;18.96;61.26;101095.09;5013806;28;46467;-77
2021/09/18 03:20:16;;;;;;;;;17.67;17.00;;;;;18.96;61.50;101084.38;5013088;28;45532;-77
2021/09/18 03:22:41;;;;;;;;;16.67;15.33;;;;;18.95;61.29;101087.97;4995326;28;61947;-76
2021/09/18 03:25:07;;;;;;;;;19.33;16.33;;;;;18.96;61.30;101087.06;5011966;28;58731;-75
2021/09/18 03:27:33;;;;;;;;;16.33;15.33;;;;;18.91;61.57;101080.91;5029481;28;45553;-77
2021/09/18 03:29:59;;;;;;;;;16.33;16.00;;;;;18.90;61.63;101079.16;5032633;28;45536;-74
2021/09/18 03:32:24;;;;;;;;;18.00;16.67;;;;;18.93;61.57;101089.81;5033022;28;45526;-75
2021/09/18 03:34:49;;;;;;;;;16.00;16.00;;;;;18.92;61.43;101080.03;5031680;28;45789;-75
2021/09/18 03:37:15;;;;;;;;;17.67;15.00;;;;;18.89;61.61;101078.28;5032650;28;45348;-74
2021/09/18 03:39:41;;;;;;;;;19.00;16.00;;;;;18.88;61.33;101072.97;5033477;28;45562;-76
2021/09/18 03:42:06;;;;;;;;;19.00;16.00;;;;;18.86;61.73;101072.13;5032541;28;47527;-76
2021/09/18 03:44:32;;;;;;;;;16.33;15.00;;;;;18.82;61.77;101072.19;5032558;28;45807;-75
2021/09/18 03:46:57;;;;;;;;;15.67;15.67;;;;;18.79;61.59;101077.56;5032599;28;52801;-76
2021/09/18 03:49:22;;;;;;;;;13.00;12.00;;;;;18.77;61.38;101073.19;5031919;28;51644;-75
2021/09/18 03:51:48;;;;;;;;;15.33;14.00;;;;;18.79;61.50;101082.03;5032679;28;60162;-75
2021/09/18 03:54:13;;;;;;;;;18.67;16.67;;;;;18.77;61.42;101078.53;5031662;28;56402;-76
2021/09/18 03:56:39;;;;;;;;;19.33;16.00;;;;;18.77;61.45;101081.19;5032234;28;45947;-75
2021/09/18 03:59:04;;;;;;;;;17.00;12.33;;;;;18.73;61.80;101083.03;5032749;28;45555;-76
2021/09/18 04:01:29;;;;;;;;;17.00;16.00;;;;;18.73;61.69;101077.69;5031652;28;46809;-75
2021/09/18 04:03:55;;;;;;;;;17.00;15.33;;;;;18.72;61.40;101083.06;5032294;28;49968;-77
2021/09/18 04:06:21;;;;;;;;;14.67;13.67;;;;;18.69;61.55;101083.13;5032571;28;45719;-76
2021/09/18 04:08:46;;;;;;;;;16.00;14.67;;;;;18.68;62.04;101084.03;5032375;28;50183;-74
2021/09/18 04:11:11;;;;;;;;;15.67;15.00;;;;;18.63;61.89;101076.06;5032463;28;45729;-75
2021/09/18 04:13:37;;;;;;;;;19.67;17.00;;;;;18.70;61.64;101093.81;5032239;28;45518;-77
2021/09/18 04:16:02;;;;;;;;;18.00;16.00;;;;;18.70;61.39;101091.16;5032206;28;54074;-75
2021/09/18 04:18:28;;;;;;;;;18.67;17.67;;;;;18.69;61.76;101091.16;5031951;28;45970;-75
2021/09/18 04:20:53;;;;;;;;;17.67;16.67;;;;;18.72;61.91;101088.44;5032210;28;45553;-76
2021/09/18 04:23:19;;;;;;;;;23.00;19.67;;;;;18.73;61.47;101093.75;5031844;28;60132;-77
2021/09/18 04:25:44;;;;;;;;;20.67;16.67;;;;;18.73;61.54;101084.84;5031289;28;45534;-75
2021/09/18 04:28:09;;;;;;;;;20.33;16.00;;;;;18.74;61.74;101091.94;5031952;28;46849;-74
2021/09/18 04:30:35;;;;;;;;;16.67;16.33;;;;;18.73;61.58;101080.38;5031208;28;46483;-77
2021/09/18 04:33:00;;;;;;;;;20.00;17.00;;;;;18.74;61.64;101084.81;5031761;28;57668;-75
2021/09/18 04:35:25;;;;;;;;;22.00;18.33;;;;;18.70;61.62;101082.25;5030636;28;45419;-76
2021/09/18 04:37:51;;;;;;;;;17.33;17.33;;;;;18.74;62.05;101094.63;5031583;28;51904;-75
2021/09/18 04:40:17;;;;;;;;;23.67;17.00;;;;;18.74;61.79;101100.84;5032152;28;46486;-77
2021/09/18 04:42:42;;;;;;;;;19.33;18.33;;;;;18.72;62.18;101091.09;5031251;28;45503;-75
2021/09/18 04:45:08;;;;;;;;;20.67;20.67;;;;;18.73;61.69;101085.72;5031663;28;46081;-76
2021/09/18 04:47:34;;;;;;;;;22.67;21.00;;;;;18.75;61.97;101085.69;5031805;28;45522;-75
2021/09/18 04:49:59;;;;;;;;;23.67;22.00;;;;;18.74;61.53;101090.16;5030886;28;61447;-75
2021/09/18 04:52:24;;;;;;;;;24.33;21.00;;;;;18.75;61.76;101094.63;5031610;28;45506;-75
2021/09/18 04:54:53;;;;;;;;;27.33;27.33;;;;;18.77;61.83;101089.22;5031672;28;47387;-74
2021/09/18 04:57:18;;;;;;;;;28.67;26.00;;;;;18.73;61.62;101088.41;5028903;28;45562;-75
2021/09/18 04:59:43;;;;;;;;;29.33;27.00;;;;;18.75;61.48;101091.03;5030375;28;54004;-76
2021/09/18 05:02:09;;;;;;;;;29.67;28.00;;;;;18.73;61.54;101092.88;5030584;28;53665;-75
2021/09/18 05:04:34;;;;;;;;;28.00;25.00;;;;;18.73;61.87;101099.09;5031038;28;56219;-76
2021/09/18 05:07:00;;;;;;;;;26.67;26.67;;;;;18.72;61.39;101091.09;5031096;28;49848;-75
2021/09/18 05:09:25;;;;;;;;;27.00;24.67;;;;;18.70;61.62;101096.50;5030916;28;61396;-77
2021/09/18 05:11:50;;;;;;;;;28.33;26.33;;;;;18.70;61.69;101091.16;5030747;28;56725;-75
2021/09/18 05:14:17;;;;;;;;;24.67;22.00;;;;;18.71;61.41;101102.72;5031017;28;55656;-75
2021/09/18 05:16:42;;;;;;;;;21.33;21.00;;;;;18.69;61.64;101091.16;5031712;28;45674;-78
2021/09/18 05:19:08;;;;;;;;;23.00;20.33;;;;;18.69;61.63;101104.53;5030495;28;52102;-75
2021/09/18 05:21:33;;;;;;;;;21.33;20.33;;;;;18.69;61.40;101107.19;5030710;28;57118;-74
2021/09/18 05:23:58;;;;;;;;;20.00;20.00;;;;;18.68;61.46;101097.41;5031950;28;45413;-75
2021/09/18 05:26:24;;;;;;;;;19.00;16.00;;;;;18.65;61.55;101097.47;5031099;28;45634;-75
2021/09/18 05:28:51;;;;;;;;;20.33;18.67;;;;;18.69;61.60;101109.88;5031098;28;46754;-75
2021/09/18 05:31:17;;;;;;;;;20.00;16.33;;;;;18.71;61.76;101118.78;5030691;28;45379;-75
2021/09/18 05:33:42;;;;;;;;;20.00;18.00;;;;;18.71;61.54;101106.28;5029919;28;48409;-74
2021/09/18 05:36:08;;;;;;;;;17.67;17.67;;;;;18.71;61.59;101108.94;5031478;28;45759;-77
2021/09/18 05:38:33;;;;;;;;;18.33;17.00;;;;;18.72;61.54;101108.03;5030058;28;58706;-80
2021/09/18 05:40:58;;;;;;;;;18.67;18.67;;;;;18.73;61.53;101103.56;5029761;28;56177;-76
2021/09/18 05:43:24;;;;;;;;;17.00;15.67;;;;;18.72;61.43;101110.72;5025832;28;54668;-76
2021/09/18 05:45:49;;;;;;;;;18.00;18.00;;;;;18.72;61.72;101110.72;5029680;28;45721;-76
2021/09/18 05:48:15;;;;;;;;;20.00;19.67;;;;;18.73;61.72;101114.25;5030522;28;46991;-77
2021/09/18 05:50:40;;;;;;;;;18.00;16.00;;;;;18.72;61.58;101110.72;5035070;28;47312;-75
2021/09/18 05:53:05;;;;;;;;;18.67;18.33;;;;;18.73;61.72;101117.81;5030472;28;57051;-78
2021/09/18 05:55:31;;;;;;;;;20.67;18.67;;;;;18.74;61.46;101116.91;5030747;28;45515;-77
2021/09/18 05:57:56;;;;;;;;;22.00;18.00;;;;;18.76;61.67;101111.53;5028421;28;63767;-76
2021/09/18 06:00:21;;;;;;;;;22.00;18.00;;;;;18.76;61.12;101109.75;5026766;28;45458;-77
2021/09/18 06:02:47;;;;;;;;;18.00;16.33;;;;;18.79;61.58;101108.78;5030492;28;57369;-76
2021/09/18 06:05:13;;;;;;;;;17.00;16.67;;;;;18.78;61.22;101112.38;5030870;28;45559;-77
2021/09/18 06:07:38;;;;;;;;;17.33;17.33;;;;;18.78;61.45;101121.28;5030972;28;46114;-76
2021/09/18 06:10:04;;;;;;;;;16.00;15.67;;;;;18.79;61.50;101128.41;5030389;28;45490;-75
2021/09/18 06:12:29;;;;;;;;;14.67;14.67;;;;;18.81;61.35;101123.03;5030477;28;45685;-75
2021/09/18 06:14:55;;;;;;;;;14.33;13.00;;;;;18.83;61.51;101121.22;5020178;28;45347;-76
2021/09/18 06:17:20;;;;;;;;;14.67;14.00;;;;;18.88;61.19;101129.16;5030342;28;55255;-77
2021/09/18 06:19:45;;;;;;;;;16.33;15.33;;;;;18.88;61.53;101135.41;5030579;28;45384;-77
2021/09/18 06:22:12;;;;;;;;;14.33;14.33;;;;;18.93;61.44;101138.00;5033744;28;46977;-77
2021/09/18 06:24:39;;;;;;;;;17.33;15.00;;;;;18.94;61.24;101129.91;5035923;28;45954;-77
2021/09/18 06:27:04;;;;;;;;;15.00;13.00;;;;;18.97;61.53;101134.34;5034127;28;46366;-75
2021/09/18 06:29:30;;;;;;;;;16.33;14.67;;;;;18.95;61.06;101120.97;5031686;28;56271;-75
2021/09/18 06:31:55;;;;;;;;;16.33;15.00;;;;;19.03;61.15;101128.88;5027838;28;45411;-76
2021/09/18 06:34:20;;;;;;;;;15.00;15.00;;;;;19.06;61.01;101131.47;5032923;28;51755;-77
2021/09/18 06:36:46;;;;;;;;;15.67;15.67;;;;;19.09;60.67;101132.31;5033531;28;45666;-76
2021/09/18 06:39:11;;;;;;;;;14.00;12.67;;;;;19.13;60.89;101118.88;5036903;28;52210;-77
2021/09/18 06:41:37;;;;;;;;;16.67;16.67;;;;;19.14;60.87;101126.88;5039791;28;54461;-76
2021/09/18 06:44:02;;;;;;;;;18.00;15.00;;;;;19.18;60.89;101131.25;5019442;28;53928;-75
2021/09/18 06:46:27;;;;;;;;;15.33;15.00;;;;;19.17;61.10;101120.56;5036219;28;46620;-76
2021/09/18 06:48:53;;;;;;;;;19.00;16.00;;;;;19.23;60.73;101115.06;5040832;28;59823;-73
2021/09/18 06:51:20;;;;;;;;;21.67;19.00;;;;;19.21;60.39;101116.91;5033687;28;45482;-75
2021/09/18 06:53:45;;;;;;;;;17.00;14.33;;;;;19.29;60.97;101125.69;5031409;28;45565;-76
2021/09/18 06:56:10;;;;;;;;;14.00;12.00;;;;;19.31;60.51;101123.84;5036823;28;47163;-76
2021/09/18 06:58:36;;;;;;;;;16.67;14.00;;;;;19.34;60.33;101121.13;5040994;28;45849;-75
2021/09/18 07:01:01;;;;;;;;;18.00;15.33;;;;;19.31;60.21;101124.72;5033316;28;56037;-75
2021/09/18 07:03:27;;;;;;;;;14.67;14.67;;;;;19.30;59.96;101124.78;5037975;28;45557;-74
2021/09/18 07:05:52;;;;;;;;;15.33;15.00;;;;;19.23;60.40;101116.00;5032976;28;46520;-74
2021/09/18 07:08:17;;;;;;;;;14.67;14.67;;;;;19.23;60.42;101121.34;5035347;28;45438;-72
2021/09/18 07:10:43;;;;;;;;;15.00;13.67;;;;;19.24;60.45;101119.53;5033921;28;49934;-74
2021/09/18 07:13:08;;;;;;;;;17.67;14.33;;;;;19.23;60.29;101136.50;5027227;28;51596;-77
2021/09/18 07:15:33;;;;;;;;;16.00;14.33;;;;;19.21;60.19;101136.53;5031232;28;60921;-72
2021/09/18 07:17:59;;;;;;;;;14.67;14.67;;;;;19.21;60.51;101138.34;5039016;28;45364;-75
2021/09/18 07:20:24;;;;;;;;;18.33;14.00;;;;;19.25;60.68;101142.72;5032889;28;45565;-76
2021/09/18 07:22:50;;;;;;;;;15.67;14.67;;;;;19.22;60.42;101124.91;5035821;28;54750;-76
2021/09/18 07:27:50;;;;;;;;;16.33;16.33;;;;;19.38;60.58;101137.06;4937909;26;45995;-76
2021/09/18 07:30:16;;;;;;;;;15.67;13.67;;;;;19.44;60.36;101138.78;5006405;28;45491;-75
2021/09/18 07:32:41;;;;;;;;;17.00;16.00;;;;;19.47;60.28;101129.78;5010765;28;48610;-75
2021/09/18 07:35:07;;;;;;;;;18.67;15.00;;;;;19.52;60.04;101122.53;5009459;28;46359;-78
2021/09/18 07:37:34;;;;;;;;;16.67;15.00;;;;;19.62;59.68;101130.38;4999551;28;45512;-76
2021/09/18 07:39:59;;;;;;;;;15.00;15.00;;;;;19.67;59.82;101130.28;5010502;28;46585;-80
2021/09/18 07:42:24;;;;;;;;;17.67;15.00;;;;;19.69;59.72;101128.44;5008669;28;45505;-78
2021/09/18 07:44:51;;;;;;;;;19.67;16.00;;;;;19.73;59.58;101145.34;5009290;28;47465;-77
2021/09/18 07:47:16;;;;;;;;;14.67;14.00;;;;;19.73;60.08;101148.00;5002914;28;48418;-75
2021/09/18 07:49:42;;;;;;;;;16.67;15.00;;;;;19.72;59.73;101144.44;4999694;28;46373;-74
2021/09/18 07:52:07;;;;;;;;;17.00;14.00;;;;;19.74;59.49;101150.66;5004128;28;45697;-75
2021/09/18 07:54:33;;;;;;;;;19.00;18.67;;;;;19.77;59.75;101144.34;5006862;28;46380;-76
2021/09/18 07:56:58;;;;;;;;;14.67;14.00;;;;;19.79;59.50;101146.06;4974478;28;45436;-74
2021/09/18 07:59:23;;;;;;;;;15.33;15.00;;;;;19.84;60.05;101145.97;5007056;28;45788;-74
2021/09/18 08:01:49;;;;;;;;;15.33;15.33;;;;;19.89;60.13;101142.28;5007133;28;45874;-75
2021/09/18 08:04:14;;;;;;;;;14.33;13.33;;;;;19.98;59.61;101143.00;5000781;28;46349;-74
2021/09/18 08:06:40;;;;;;;;;18.00;15.00;;;;;20.05;59.77;101145.50;4999504;28;51884;-74
2021/09/18 08:09:06;;;;;;;;;14.00;14.00;;;;;20.15;59.39;101148.84;4984099;28;45447;-74
2021/09/18 08:11:33;;;;;;;;;16.00;15.67;;;;;20.23;59.53;101149.53;5002595;28;46223;-75
2021/09/18 08:13:59;;;;;;;;;17.00;17.00;;;;;20.33;58.26;101147.50;5003055;28;47558;-74
2021/09/18 08:16:24;;;;;;;;;15.33;14.33;;;;;20.40;58.72;101155.38;5006745;28;45484;-73
2021/09/18 08:18:50;;;;;;;;;16.67;16.67;;;;;20.46;58.45;101153.47;4990871;28;54906;-74
2021/09/18 08:21:15;;;;;;;;;20.67;16.00;;;;;20.53;58.36;101152.44;5006636;28;45589;-75
2021/09/18 08:23:41;;;;;;;;;17.00;15.00;;;;;20.59;58.74;101154.94;4990158;28;47454;-74
2021/09/18 08:26:06;;;;;;;;;17.00;12.00;;;;;20.61;58.63;101150.41;5007978;28;45542;-75
2021/09/18 08:28:32;;;;;;;;;14.33;14.33;;;;;20.67;58.51;101158.34;5009984;28;45851;-74
2021/09/18 08:30:57;;;;;;;;;15.00;14.67;;;;;20.71;57.98;101151.06;5008648;28;48894;-73
2021/09/18 08:33:22;;;;;;;;;12.67;12.67;;;;;20.75;57.70;101153.63;4991928;28;59777;-75
2021/09/18 08:35:48;;;;;;;;;11.00;11.00;;;;;20.75;57.21;101156.31;5011544;28;45820;-74
2021/09/18 08:38:13;;;;;;;;;10.33;10.33;;;;;20.77;57.95;101156.28;4992548;28;45800;-74
2021/09/18 08:40:39;;;;;;;;;9.33;9.33;;;;;20.78;57.14;101144.63;5010409;28;50096;-74
2021/09/18 08:43:05;;;;;;;;;7.67;7.67;;;;;20.76;57.34;101150.03;5008775;28;46531;-76
2021/09/18 08:45:31;;;;;;;;;9.00;8.00;;;;;20.76;57.31;101155.41;5009707;28;45489;-76
2021/09/18 08:47:56;;;;;;;;;10.33;8.00;;;;;20.76;57.08;101155.41;4989830;28;45514;-74
2021/09/18 08:50:22;;;;;;;;;7.00;7.00;;;;;20.74;57.16;101146.50;4990938;28;45703;-75
2021/09/18 08:52:48;;;;;;;;;13.00;9.00;;;;;20.75;56.92;101140.22;5007119;28;45617;-76
2021/09/18 08:55:13;;;;;;;;;8.00;8.00;;;;;20.77;56.24;101142.84;5009237;28;45428;-74
2021/09/18 08:57:39;;;;;;;;;9.00;9.00;;;;;20.76;56.47;101141.97;5009906;28;45569;-76
2021/09/18 09:00:06;;;;;;;;;15.33;13.00;;;;;20.73;56.54;101134.03;5009340;28;45882;-75
2021/09/18 09:02:33;;;;;;;;;8.33;8.33;;;;;20.78;56.33;101136.59;5012073;28;46473;-75
2021/09/18 09:05:09;;;;;;;;;11.33;8.00;;;;;20.80;56.50;101143.66;4977921;28;45469;-74
2021/09/18 09:07:34;;;;;;;;;8.00;7.33;;;;;20.82;56.07;101136.44;5005479;28;45602;-75
2021/09/18 09:10:04;;;;;;;;;13.67;10.33;;;;;20.80;56.00;101140.97;5009497;28;45610;-75
2021/09/18 09:12:36;;;;;;;;;14.00;10.33;;;;;20.82;56.04;101136.44;5011801;28;47593;-75
2021/09/18 09:15:21;;;;;;;;;8.00;8.00;;;;;20.88;55.51;101144.34;4994555;28;45414;-75
2021/09/18 09:17:52;;;;;;;;;8.67;7.00;;;;;20.90;55.27;101141.63;5007747;28;45970;-74
2021/09/18 09:20:23;;;;;;;;;8.00;8.00;;;;;20.88;55.73;101132.75;5010184;28;45522;-76
2021/09/18 09:22:50;;;;;;;;;10.33;8.00;;;;;20.92;55.34;101132.59;5002389;28;45746;-74
2021/09/18 09:25:32;;;;;;;;;8.00;8.00;;;;;20.95;55.29;101139.69;5011157;28;45483;-74
2021/09/18 09:28:20;;;;;;;;;8.67;7.00;;;;;20.94;56.11;101124.53;4991138;28;45698;-74
2021/09/18 09:30:46;;;;;;;;;8.67;7.00;;;;;21.00;55.67;101134.22;4986573;28;45730;-75
2021/09/18 09:33:12;;;;;;;;;10.67;10.67;;;;;21.04;55.71;101125.13;4991428;28;56100;-74
2021/09/18 09:35:37;;;;;;;;;7.00;7.00;;;;;21.08;55.46;101124.13;4974535;28;47316;-76
2021/09/18 09:38:03;;;;;;;;;9.00;7.33;;;;;21.12;55.51;101131.19;4988481;28;53208;-75
2021/09/18 09:40:33;;;;;;;;;20.67;16.33;;;;;21.14;55.00;101126.63;4991530;28;45998;-75
2021/09/18 09:42:59;;;;;;;;;10.00;8.00;;;;;21.16;55.15;101130.16;4973499;28;47865;-74
2021/09/18 09:45:24;;;;;;;;;8.67;8.67;;;;;21.19;55.39;101119.31;4989109;28;45781;-75
2021/09/18 09:48:19;;;;;;;;;9.33;9.00;;;;;21.24;54.85;101128.13;4991247;28;52010;-76
2021/09/18 09:50:54;;;;;;;;;8.33;8.33;;;;;21.28;55.11;101124.44;4989160;28;45652;-74
2021/09/18 09:53:28;;;;;;;;;9.33;7.00;;;;;21.28;54.97;101119.06;4973697;28;46679;-76
2021/09/18 09:55:53;;;;;;;;;16.33;7.67;;;;;21.35;54.97;101123.38;4994236;28;45457;-74
2021/09/18 09:58:19;;;;;;;;;10.67;10.00;;;;;21.39;54.40;101124.16;4975482;28;45457;-75
2021/09/18 10:00:47;;;;;;;;;8.00;8.00;;;;;21.42;54.12;101122.28;5012592;28;45547;-74
2021/09/18 10:03:13;;;;;;;;;9.00;9.00;;;;;21.45;54.96;101114.13;5011840;28;46897;-74
2021/09/18 10:05:38;;;;;;;;;7.00;6.67;;;;;21.48;53.94;101110.47;5010086;28;45397;-74
2021/09/18 10:08:04;;;;;;;;;12.67;9.33;;;;;21.52;54.46;101119.31;5011403;28;45443;-74
2021/09/18 10:10:30;;;;;;;;;11.00;10.00;;;;;21.56;54.77;101120.97;5015037;28;45446;-75
2021/09/18 10:12:56;;;;;;;;;12.00;8.00;;;;;21.60;54.62;101123.53;4997153;28;45464;-75
2021/09/18 10:15:24;;;;;;;;;15.00;10.33;;;;;21.64;54.34;101124.34;4994302;28;45464;-74
2021/09/18 10:17:50;;;;;;;;;8.33;8.00;;;;;21.67;54.55;101121.53;5010783;28;45554;-74
2021/09/18 10:23:13;;;;;;;;;12.00;12.00;;;;;21.73;54.38;101118.66;4997029;28;45481;-74
2021/09/18 10:25:59;;;;;;;;;13.33;11.00;;;;;21.82;54.59;101109.44;4986309;28;45865;-76
2021/09/18 10:28:41;;;;;;;;;9.67;9.67;;;;;21.84;54.14;101102.19;5030637;28;45542;-74
2021/09/18 10:31:32;;;;;;;;;12.33;10.00;;;;;21.90;54.17;101110.97;5032061;28;45569;-75
2021/09/18 10:33:57;;;;;;;;;12.00;11.00;;;;;21.93;54.40;101109.97;5028274;28;60213;-75
2021/09/18 10:36:32;;;;;;;;;9.00;9.00;;;;;21.94;54.08;101109.97;5032860;28;54350;-75
2021/09/18 10:39:20;;;;;;;;;9.00;9.00;;;;;21.96;54.04;101113.47;5033693;28;45519;-75
2021/09/18 10:41:47;;;;;;;;;10.33;10.33;;;;;22.00;54.20;101102.59;5026665;28;45507;-75
2021/09/18 10:44:13;;;;;;;;;13.33;10.00;;;;;21.99;54.22;101099.03;5026427;28;47607;-74
2021/09/18 10:46:47;;;;;;;;;9.00;9.00;;;;;22.09;53.43;101102.31;5034052;28;45633;-74
2021/09/18 10:50:04;;;;;;;;;11.00;9.67;;;;;22.16;53.70;101090.47;5033529;28;45531;-76
2021/09/18 10:52:26;;;;;;;;;10.67;10.67;;;;;22.23;53.56;101092.91;5026731;28;45442;-74
2021/09/18 10:55:07;;;;;;;;;11.67;9.33;;;;;22.34;53.88;101086.28;5034003;28;47350;-78
2021/09/18 10:57:41;;;;;;;;;14.33;11.00;;;;;22.44;53.68;101083.22;5030172;28;45457;-76
2021/09/18 11:00:18;;;;;;;;;9.00;9.00;;;;;22.54;52.69;101074.84;5026611;28;45435;-75
2021/09/18 11:02:48;;;;;;;;;10.00;10.00;;;;;22.58;53.23;101071.97;5036053;28;45569;-77
2021/09/18 11:05:16;;;;;;;;;10.67;9.67;;;;;22.64;53.17;101069.09;5031817;28;46809;-75
2021/09/18 11:07:52;;;;;;;;;8.67;8.67;;;;;22.70;52.61;101065.28;5033942;28;45581;-75
2021/09/18 11:10:20;;;;;;;;;12.00;9.00;;;;;22.73;52.59;101066.03;5030369;28;45408;-75
2021/09/18 11:13:07;;;;;;;;;9.00;8.67;;;;;22.75;52.52;101066.00;5029083;28;45674;-75
2021/09/18 11:15:49;;;;;;;;;37.33;29.67;;;;;22.77;52.43;101063.25;5030163;28;47604;-75